sensor_id;sensor_type;location;lat;lon;timestamp;P1;durP1;ratioP1;P2;durP2;ratioP2
50605;SDS011;36557;53.572;10.170;2024-01-06T00:01:29;4.85;;;2.40;;
50605;SDS011;36557;53.572;10.170;2024-01-06T00:03:55;4.65;;;2.38;;
50605;SDS011;36557;53.572;10.170;2024-01-06T00:06:20;5.70;;;2.50;;
50605;SDS011;36557;53.572;10.170;2024-01-06T00:08:46;4.17;;;2.47;;
50605;SDS011;36557;53.572;10.170;2024-01-06T00:11:18;5.95;;;2.78;;
50605;SDS011;36557;53.572;10.170;2024-01-06T00:13:47;3.78;;;2.25;;
50605;SDS011;36557;53.572;10.170;2024-01-06T00:16:13;4.57;;;2.77;;
50605;SDS011;36557;53.572;10.170;2024-01-06T00:18:41;4.30;;;2.50;;
50605;SDS011;36557;53.572;10.170;2024-01-06T00:21:07;4.17;;;2.60;;
50605;SDS011;36557;53.572;10.170;2024-01-06T00:23:33;4.85;;;2.47;;
50605;SDS011;36557;53.572;10.170;2024-01-06T00:25:59;4.70;;;2.33;;
50605;SDS011;36557;53.572;10.170;2024-01-06T00:28:24;4.25;;;2.60;;
50605;SDS011;36557;53.572;10.170;2024-01-06T00:30:50;4.83;;;2.77;;
50605;SDS011;36557;53.572;10.170;2024-01-06T00:33:16;4.33;;;2.40;;
50605;SDS011;36557;53.572;10.170;2024-01-06T00:35:41;4.45;;;2.90;;
50605;SDS011;36557;53.572;10.170;2024-01-06T00:38:08;5.38;;;3.00;;
50605;SDS011;36557;53.572;10.170;2024-01-06T00:40:33;5.03;;;2.80;;
50605;SDS011;36557;53.572;10.170;2024-01-06T00:42:59;4.60;;;2.88;;
50605;SDS011;36557;53.572;10.170;2024-01-06T00:45:25;4.97;;;2.53;;
50605;SDS011;36557;53.572;10.170;2024-01-06T00:47:50;4.72;;;2.63;;
50605;SDS011;36557;53.572;10.170;2024-01-06T00:50:17;5.60;;;2.70;;
50605;SDS011;36557;53.572;10.170;2024-01-06T00:52:44;5.68;;;2.70;;
50605;SDS011;36557;53.572;10.170;2024-01-06T00:55:10;5.22;;;2.85;;
50605;SDS011;36557;53.572;10.170;2024-01-06T00:57:36;5.82;;;3.03;;
50605;SDS011;36557;53.572;10.170;2024-01-06T01:00:03;5.22;;;2.80;;
50605;SDS011;36557;53.572;10.170;2024-01-06T01:02:30;4.63;;;2.67;;
50605;SDS011;36557;53.572;10.170;2024-01-06T01:04:56;4.60;;;2.67;;
50605;SDS011;36557;53.572;10.170;2024-01-06T01:07:22;5.17;;;2.90;;
50605;SDS011;36557;53.572;10.170;2024-01-06T01:09:48;5.40;;;3.00;;
50605;SDS011;36557;53.572;10.170;2024-01-06T01:12:14;5.22;;;3.15;;
50605;SDS011;36557;53.572;10.170;2024-01-06T01:14:40;5.43;;;2.75;;
50605;SDS011;36557;53.572;10.170;2024-01-06T01:17:06;4.67;;;2.77;;
50605;SDS011;36557;53.572;10.170;2024-01-06T01:19:31;5.60;;;2.80;;
50605;SDS011;36557;53.572;10.170;2024-01-06T01:21:57;5.10;;;3.07;;
50605;SDS011;36557;53.572;10.170;2024-01-06T01:24:23;5.30;;;2.63;;
50605;SDS011;36557;53.572;10.170;2024-01-06T01:26:49;5.40;;;3.00;;
50605;SDS011;36557;53.572;10.170;2024-01-06T01:29:15;4.82;;;2.72;;
50605;SDS011;36557;53.572;10.170;2024-01-06T01:31:45;6.38;;;3.13;;
50605;SDS011;36557;53.572;10.170;2024-01-06T01:34:11;5.03;;;3.10;;
50605;SDS011;36557;53.572;10.170;2024-01-06T01:36:37;4.47;;;2.83;;
50605;SDS011;36557;53.572;10.170;2024-01-06T01:39:03;5.23;;;3.17;;
50605;SDS011;36557;53.572;10.170;2024-01-06T01:41:29;5.82;;;2.95;;
50605;SDS011;36557;53.572;10.170;2024-01-06T01:43:54;4.90;;;2.83;;
50605;SDS011;36557;53.572;10.170;2024-01-06T01:46:26;4.40;;;2.47;;
50605;SDS011;36557;53.572;10.170;2024-01-06T01:48:53;5.60;;;2.83;;
50605;SDS011;36557;53.572;10.170;2024-01-06T01:51:24;4.80;;;2.70;;
50605;SDS011;36557;53.572;10.170;2024-01-06T01:53:52;4.87;;;2.97;;
50605;SDS011;36557;53.572;10.170;2024-01-06T01:56:18;5.10;;;2.97;;
50605;SDS011;36557;53.572;10.170;2024-01-06T01:58:45;4.68;;;2.78;;
50605;SDS011;36557;53.572;10.170;2024-01-06T02:01:11;4.90;;;2.70;;
50605;SDS011;36557;53.572;10.170;2024-01-06T02:03:37;5.15;;;3.08;;
50605;SDS011;36557;53.572;10.170;2024-01-06T02:06:05;4.40;;;2.67;;
50605;SDS011;36557;53.572;10.170;2024-01-06T02:08:31;4.83;;;2.80;;
50605;SDS011;36557;53.572;10.170;2024-01-06T02:10:57;5.67;;;2.83;;
50605;SDS011;36557;53.572;10.170;2024-01-06T02:13:23;4.03;;;2.50;;
50605;SDS011;36557;53.572;10.170;2024-01-06T02:15:49;5.53;;;2.53;;
50605;SDS011;36557;53.572;10.170;2024-01-06T02:18:15;4.47;;;2.70;;
50605;SDS011;36557;53.572;10.170;2024-01-06T02:20:42;4.75;;;2.72;;
50605;SDS011;36557;53.572;10.170;2024-01-06T02:23:09;4.35;;;2.50;;
50605;SDS011;36557;53.572;10.170;2024-01-06T02:25:35;4.72;;;2.40;;
50605;SDS011;36557;53.572;10.170;2024-01-06T02:28:01;6.00;;;2.78;;
50605;SDS011;36557;53.572;10.170;2024-01-06T02:30:26;4.10;;;2.40;;
50605;SDS011;36557;53.572;10.170;2024-01-06T02:32:52;4.93;;;2.85;;
50605;SDS011;36557;53.572;10.170;2024-01-06T02:35:19;5.60;;;2.85;;
50605;SDS011;36557;53.572;10.170;2024-01-06T02:37:45;4.13;;;2.50;;
50605;SDS011;36557;53.572;10.170;2024-01-06T02:40:11;4.83;;;2.77;;
50605;SDS011;36557;53.572;10.170;2024-01-06T02:42:38;5.73;;;3.17;;
50605;SDS011;36557;53.572;10.170;2024-01-06T02:45:04;5.00;;;2.90;;
50605;SDS011;36557;53.572;10.170;2024-01-06T02:47:30;4.72;;;2.63;;
50605;SDS011;36557;53.572;10.170;2024-01-06T02:49:56;5.07;;;2.80;;
50605;SDS011;36557;53.572;10.170;2024-01-06T02:52:22;4.30;;;2.70;;
50605;SDS011;36557;53.572;10.170;2024-01-06T02:54:47;5.38;;;2.90;;
50605;SDS011;36557;53.572;10.170;2024-01-06T02:57:13;4.32;;;2.58;;
50605;SDS011;36557;53.572;10.170;2024-01-06T02:59:39;5.13;;;2.80;;
50605;SDS011;36557;53.572;10.170;2024-01-06T03:02:05;4.57;;;2.80;;
50605;SDS011;36557;53.572;10.170;2024-01-06T03:04:31;4.65;;;3.00;;
50605;SDS011;36557;53.572;10.170;2024-01-06T03:06:57;4.72;;;2.80;;
50605;SDS011;36557;53.572;10.170;2024-01-06T03:09:22;4.88;;;2.60;;
50605;SDS011;36557;53.572;10.170;2024-01-06T03:11:48;5.32;;;2.72;;
50605;SDS011;36557;53.572;10.170;2024-01-06T03:14:14;4.93;;;3.10;;
50605;SDS011;36557;53.572;10.170;2024-01-06T03:16:39;5.07;;;2.80;;
50605;SDS011;36557;53.572;10.170;2024-01-06T03:19:05;4.97;;;2.87;;
50605;SDS011;36557;53.572;10.170;2024-01-06T03:21:31;5.72;;;3.15;;
50605;SDS011;36557;53.572;10.170;2024-01-06T03:23:57;5.03;;;3.00;;
50605;SDS011;36557;53.572;10.170;2024-01-06T03:26:22;5.97;;;3.17;;
50605;SDS011;36557;53.572;10.170;2024-01-06T03:28:49;4.80;;;2.85;;
50605;SDS011;36557;53.572;10.170;2024-01-06T03:31:15;4.90;;;2.97;;
50605;SDS011;36557;53.572;10.170;2024-01-06T03:33:42;5.95;;;3.20;;
50605;SDS011;36557;53.572;10.170;2024-01-06T03:36:08;5.25;;;3.20;;
50605;SDS011;36557;53.572;10.170;2024-01-06T03:38:35;5.53;;;3.15;;
50605;SDS011;36557;53.572;10.170;2024-01-06T03:41:00;5.22;;;3.22;;
50605;SDS011;36557;53.572;10.170;2024-01-06T03:43:26;4.78;;;2.90;;
50605;SDS011;36557;53.572;10.170;2024-01-06T03:45:52;5.30;;;2.97;;
50605;SDS011;36557;53.572;10.170;2024-01-06T03:48:17;4.50;;;2.85;;
50605;SDS011;36557;53.572;10.170;2024-01-06T03:50:43;5.33;;;2.97;;
50605;SDS011;36557;53.572;10.170;2024-01-06T03:53:09;6.10;;;3.10;;
50605;SDS011;36557;53.572;10.170;2024-01-06T03:55:34;5.22;;;2.97;;
50605;SDS011;36557;53.572;10.170;2024-01-06T03:58:00;5.55;;;2.95;;
50605;SDS011;36557;53.572;10.170;2024-01-06T04:00:26;5.05;;;2.85;;
50605;SDS011;36557;53.572;10.170;2024-01-06T04:02:52;4.28;;;3.03;;
50605;SDS011;36557;53.572;10.170;2024-01-06T04:05:17;4.87;;;2.97;;
50605;SDS011;36557;53.572;10.170;2024-01-06T04:07:43;5.63;;;2.90;;
50605;SDS011;36557;53.572;10.170;2024-01-06T04:10:09;5.20;;;3.20;;
50605;SDS011;36557;53.572;10.170;2024-01-06T04:12:34;4.83;;;3.10;;
50605;SDS011;36557;53.572;10.170;2024-01-06T04:15:00;6.30;;;3.17;;
50605;SDS011;36557;53.572;10.170;2024-01-06T04:17:26;4.40;;;2.83;;
50605;SDS011;36557;53.572;10.170;2024-01-06T04:19:52;5.18;;;3.08;;
50605;SDS011;36557;53.572;10.170;2024-01-06T04:22:18;5.00;;;3.05;;
50605;SDS011;36557;53.572;10.170;2024-01-06T04:24:44;5.13;;;3.00;;
50605;SDS011;36557;53.572;10.170;2024-01-06T04:27:10;5.33;;;3.03;;
50605;SDS011;36557;53.572;10.170;2024-01-06T04:29:35;4.87;;;3.13;;
50605;SDS011;36557;53.572;10.170;2024-01-06T04:32:01;4.97;;;2.93;;
50605;SDS011;36557;53.572;10.170;2024-01-06T04:34:27;5.23;;;3.07;;
50605;SDS011;36557;53.572;10.170;2024-01-06T04:36:53;4.77;;;3.10;;
50605;SDS011;36557;53.572;10.170;2024-01-06T04:39:18;4.20;;;2.80;;
50605;SDS011;36557;53.572;10.170;2024-01-06T04:41:44;4.75;;;2.97;;
50605;SDS011;36557;53.572;10.170;2024-01-06T04:44:10;5.45;;;3.33;;
50605;SDS011;36557;53.572;10.170;2024-01-06T04:46:35;5.40;;;3.08;;
50605;SDS011;36557;53.572;10.170;2024-01-06T04:49:01;5.68;;;3.33;;
50605;SDS011;36557;53.572;10.170;2024-01-06T04:51:27;6.75;;;3.42;;
50605;SDS011;36557;53.572;10.170;2024-01-06T04:53:53;5.13;;;2.97;;
50605;SDS011;36557;53.572;10.170;2024-01-06T04:56:19;5.55;;;2.97;;
50605;SDS011;36557;53.572;10.170;2024-01-06T04:58:44;5.93;;;3.37;;
50605;SDS011;36557;53.572;10.170;2024-01-06T05:01:10;5.47;;;3.20;;
50605;SDS011;36557;53.572;10.170;2024-01-06T05:03:36;5.43;;;3.00;;
50605;SDS011;36557;53.572;10.170;2024-01-06T05:06:02;5.25;;;3.47;;
50605;SDS011;36557;53.572;10.170;2024-01-06T05:08:28;5.25;;;3.03;;
50605;SDS011;36557;53.572;10.170;2024-01-06T05:10:56;4.90;;;3.13;;
50605;SDS011;36557;53.572;10.170;2024-01-06T05:13:21;6.40;;;3.63;;
50605;SDS011;36557;53.572;10.170;2024-01-06T05:15:47;6.60;;;3.30;;
50605;SDS011;36557;53.572;10.170;2024-01-06T05:18:13;6.00;;;3.13;;
50605;SDS011;36557;53.572;10.170;2024-01-06T05:20:38;5.72;;;3.40;;
50605;SDS011;36557;53.572;10.170;2024-01-06T05:23:06;6.00;;;3.35;;
50605;SDS011;36557;53.572;10.170;2024-01-06T05:25:32;6.43;;;3.50;;
50605;SDS011;36557;53.572;10.170;2024-01-06T05:27:58;6.63;;;3.47;;
50605;SDS011;36557;53.572;10.170;2024-01-06T05:30:24;7.55;;;3.72;;
50605;SDS011;36557;53.572;10.170;2024-01-06T05:32:49;7.25;;;3.35;;
50605;SDS011;36557;53.572;10.170;2024-01-06T05:35:18;6.53;;;3.13;;
50605;SDS011;36557;53.572;10.170;2024-01-06T05:37:44;6.13;;;3.33;;
50605;SDS011;36557;53.572;10.170;2024-01-06T05:40:09;6.50;;;3.33;;
50605;SDS011;36557;53.572;10.170;2024-01-06T05:42:36;6.15;;;3.53;;
50605;SDS011;36557;53.572;10.170;2024-01-06T05:45:02;5.75;;;3.40;;
50605;SDS011;36557;53.572;10.170;2024-01-06T05:47:28;7.35;;;3.65;;
50605;SDS011;36557;53.572;10.170;2024-01-06T05:49:53;7.18;;;3.33;;
50605;SDS011;36557;53.572;10.170;2024-01-06T05:52:19;6.55;;;3.67;;
50605;SDS011;36557;53.572;10.170;2024-01-06T05:54:45;7.95;;;3.75;;
50605;SDS011;36557;53.572;10.170;2024-01-06T05:57:10;5.83;;;3.67;;
50605;SDS011;36557;53.572;10.170;2024-01-06T05:59:37;7.00;;;4.00;;
50605;SDS011;36557;53.572;10.170;2024-01-06T06:02:02;6.43;;;3.65;;
50605;SDS011;36557;53.572;10.170;2024-01-06T06:04:28;6.15;;;3.47;;
50605;SDS011;36557;53.572;10.170;2024-01-06T06:06:54;6.72;;;3.92;;
50605;SDS011;36557;53.572;10.170;2024-01-06T06:09:20;7.78;;;3.88;;
50605;SDS011;36557;53.572;10.170;2024-01-06T06:11:47;7.78;;;4.13;;
50605;SDS011;36557;53.572;10.170;2024-01-06T06:14:13;6.25;;;3.92;;
50605;SDS011;36557;53.572;10.170;2024-01-06T06:16:39;6.63;;;3.60;;
50605;SDS011;36557;53.572;10.170;2024-01-06T06:19:05;6.63;;;3.70;;
50605;SDS011;36557;53.572;10.170;2024-01-06T06:21:31;8.38;;;4.63;;
50605;SDS011;36557;53.572;10.170;2024-01-06T06:23:56;8.77;;;5.45;;
50605;SDS011;36557;53.572;10.170;2024-01-06T06:26:22;6.43;;;3.63;;
50605;SDS011;36557;53.572;10.170;2024-01-06T06:28:48;6.90;;;4.23;;
50605;SDS011;36557;53.572;10.170;2024-01-06T06:31:14;6.43;;;4.00;;
50605;SDS011;36557;53.572;10.170;2024-01-06T06:33:39;8.57;;;4.57;;
50605;SDS011;36557;53.572;10.170;2024-01-06T06:36:05;7.38;;;4.50;;
50605;SDS011;36557;53.572;10.170;2024-01-06T06:38:31;6.78;;;3.67;;
50605;SDS011;36557;53.572;10.170;2024-01-06T06:40:57;7.68;;;3.97;;
50605;SDS011;36557;53.572;10.170;2024-01-06T06:43:22;7.32;;;3.50;;
50605;SDS011;36557;53.572;10.170;2024-01-06T06:45:48;7.32;;;4.35;;
50605;SDS011;36557;53.572;10.170;2024-01-06T06:48:14;8.18;;;4.03;;
50605;SDS011;36557;53.572;10.170;2024-01-06T06:50:39;7.82;;;3.90;;
50605;SDS011;36557;53.572;10.170;2024-01-06T06:53:07;7.55;;;3.70;;
50605;SDS011;36557;53.572;10.170;2024-01-06T06:55:33;6.43;;;3.77;;
50605;SDS011;36557;53.572;10.170;2024-01-06T06:57:59;7.03;;;3.83;;
50605;SDS011;36557;53.572;10.170;2024-01-06T07:00:24;6.80;;;4.20;;
50605;SDS011;36557;53.572;10.170;2024-01-06T07:02:50;7.17;;;4.20;;
50605;SDS011;36557;53.572;10.170;2024-01-06T07:05:16;8.37;;;4.10;;
50605;SDS011;36557;53.572;10.170;2024-01-06T07:07:42;7.10;;;3.90;;
50605;SDS011;36557;53.572;10.170;2024-01-06T07:10:11;7.53;;;4.40;;
50605;SDS011;36557;53.572;10.170;2024-01-06T07:12:37;8.37;;;4.67;;
50605;SDS011;36557;53.572;10.170;2024-01-06T07:15:03;7.80;;;4.27;;
50605;SDS011;36557;53.572;10.170;2024-01-06T07:17:29;6.90;;;4.10;;
50605;SDS011;36557;53.572;10.170;2024-01-06T07:19:55;7.87;;;4.00;;
50605;SDS011;36557;53.572;10.170;2024-01-06T07:22:21;7.73;;;4.27;;
50605;SDS011;36557;53.572;10.170;2024-01-06T07:24:47;9.93;;;4.60;;
50605;SDS011;36557;53.572;10.170;2024-01-06T07:27:12;7.73;;;3.90;;
50605;SDS011;36557;53.572;10.170;2024-01-06T07:29:38;6.50;;;3.37;;
50605;SDS011;36557;53.572;10.170;2024-01-06T07:32:04;7.33;;;3.97;;
50605;SDS011;36557;53.572;10.170;2024-01-06T07:34:31;7.80;;;4.00;;
50605;SDS011;36557;53.572;10.170;2024-01-06T07:36:57;7.00;;;3.50;;
50605;SDS011;36557;53.572;10.170;2024-01-06T07:39:23;7.00;;;3.80;;
50605;SDS011;36557;53.572;10.170;2024-01-06T07:41:49;6.78;;;3.97;;
50605;SDS011;36557;53.572;10.170;2024-01-06T07:44:15;8.02;;;4.25;;
50605;SDS011;36557;53.572;10.170;2024-01-06T07:46:43;8.13;;;4.38;;
50605;SDS011;36557;53.572;10.170;2024-01-06T07:49:09;7.13;;;3.70;;
50605;SDS011;36557;53.572;10.170;2024-01-06T07:51:35;7.53;;;4.47;;
50605;SDS011;36557;53.572;10.170;2024-01-06T07:54:01;8.50;;;4.63;;
50605;SDS011;36557;53.572;10.170;2024-01-06T07:56:27;6.90;;;4.07;;
50605;SDS011;36557;53.572;10.170;2024-01-06T07:58:52;7.50;;;4.05;;
50605;SDS011;36557;53.572;10.170;2024-01-06T08:01:18;6.97;;;4.18;;
50605;SDS011;36557;53.572;10.170;2024-01-06T08:03:44;6.93;;;3.87;;
50605;SDS011;36557;53.572;10.170;2024-01-06T08:06:10;7.03;;;4.00;;
50605;SDS011;36557;53.572;10.170;2024-01-06T08:08:36;8.70;;;4.23;;
50605;SDS011;36557;53.572;10.170;2024-01-06T08:11:01;7.10;;;4.03;;
50605;SDS011;36557;53.572;10.170;2024-01-06T08:13:27;7.07;;;3.90;;
50605;SDS011;36557;53.572;10.170;2024-01-06T08:15:53;7.10;;;3.87;;
50605;SDS011;36557;53.572;10.170;2024-01-06T08:18:19;8.37;;;4.13;;
50605;SDS011;36557;53.572;10.170;2024-01-06T08:20:46;7.68;;;3.92;;
50605;SDS011;36557;53.572;10.170;2024-01-06T08:23:12;7.63;;;3.93;;
50605;SDS011;36557;53.572;10.170;2024-01-06T08:25:37;8.70;;;4.30;;
50605;SDS011;36557;53.572;10.170;2024-01-06T08:28:03;7.47;;;4.10;;
50605;SDS011;36557;53.572;10.170;2024-01-06T08:30:29;8.27;;;4.43;;
50605;SDS011;36557;53.572;10.170;2024-01-06T08:32:55;8.02;;;4.60;;
50605;SDS011;36557;53.572;10.170;2024-01-06T08:35:21;7.95;;;3.95;;
50605;SDS011;36557;53.572;10.170;2024-01-06T08:37:47;6.90;;;3.83;;
50605;SDS011;36557;53.572;10.170;2024-01-06T08:40:13;7.83;;;4.63;;
50605;SDS011;36557;53.572;10.170;2024-01-06T08:42:38;8.73;;;4.03;;
50605;SDS011;36557;53.572;10.170;2024-01-06T08:45:04;8.03;;;4.20;;
50605;SDS011;36557;53.572;10.170;2024-01-06T08:47:30;10.77;;;4.88;;
50605;SDS011;36557;53.572;10.170;2024-01-06T08:49:56;8.43;;;4.33;;
50605;SDS011;36557;53.572;10.170;2024-01-06T08:52:22;10.07;;;4.30;;
50605;SDS011;36557;53.572;10.170;2024-01-06T08:54:47;9.10;;;4.23;;
50605;SDS011;36557;53.572;10.170;2024-01-06T08:57:14;7.07;;;4.25;;
50605;SDS011;36557;53.572;10.170;2024-01-06T08:59:40;9.32;;;4.40;;
50605;SDS011;36557;53.572;10.170;2024-01-06T09:02:06;6.77;;;4.10;;
50605;SDS011;36557;53.572;10.170;2024-01-06T09:04:32;8.30;;;4.47;;
50605;SDS011;36557;53.572;10.170;2024-01-06T09:06:58;8.93;;;4.28;;
50605;SDS011;36557;53.572;10.170;2024-01-06T09:09:24;8.70;;;4.43;;
50605;SDS011;36557;53.572;10.170;2024-01-06T09:11:49;9.80;;;4.50;;
50605;SDS011;36557;53.572;10.170;2024-01-06T09:14:18;9.00;;;4.87;;
50605;SDS011;36557;53.572;10.170;2024-01-06T09:16:44;8.45;;;4.43;;
50605;SDS011;36557;53.572;10.170;2024-01-06T09:19:10;9.00;;;5.03;;
50605;SDS011;36557;53.572;10.170;2024-01-06T09:21:35;9.55;;;4.68;;
50605;SDS011;36557;53.572;10.170;2024-01-06T09:24:01;7.60;;;4.03;;
50605;SDS011;36557;53.572;10.170;2024-01-06T09:26:31;8.18;;;4.50;;
50605;SDS011;36557;53.572;10.170;2024-01-06T09:28:59;7.50;;;4.03;;
50605;SDS011;36557;53.572;10.170;2024-01-06T09:31:25;8.82;;;4.20;;
50605;SDS011;36557;53.572;10.170;2024-01-06T09:33:51;7.93;;;4.47;;
50605;SDS011;36557;53.572;10.170;2024-01-06T09:36:17;10.03;;;4.33;;
50605;SDS011;36557;53.572;10.170;2024-01-06T09:38:43;8.52;;;3.75;;
50605;SDS011;36557;53.572;10.170;2024-01-06T09:41:09;8.02;;;4.40;;
50605;SDS011;36557;53.572;10.170;2024-01-06T09:43:35;8.18;;;4.10;;
50605;SDS011;36557;53.572;10.170;2024-01-06T09:46:05;7.78;;;4.15;;
50605;SDS011;36557;53.572;10.170;2024-01-06T09:48:46;7.47;;;4.17;;
50605;SDS011;36557;53.572;10.170;2024-01-06T09:51:15;9.73;;;4.97;;
50605;SDS011;36557;53.572;10.170;2024-01-06T09:53:46;10.02;;;4.13;;
50605;SDS011;36557;53.572;10.170;2024-01-06T09:56:24;7.32;;;4.18;;
50605;SDS011;36557;53.572;10.170;2024-01-06T09:58:51;8.18;;;4.28;;
50605;SDS011;36557;53.572;10.170;2024-01-06T10:01:17;8.43;;;4.05;;
50605;SDS011;36557;53.572;10.170;2024-01-06T10:03:43;8.37;;;4.27;;
50605;SDS011;36557;53.572;10.170;2024-01-06T10:06:16;7.30;;;4.13;;
50605;SDS011;36557;53.572;10.170;2024-01-06T10:08:42;8.07;;;4.15;;
50605;SDS011;36557;53.572;10.170;2024-01-06T10:11:09;9.55;;;4.50;;
50605;SDS011;36557;53.572;10.170;2024-01-06T10:13:35;9.30;;;4.38;;
50605;SDS011;36557;53.572;10.170;2024-01-06T10:16:03;7.40;;;4.10;;
50605;SDS011;36557;53.572;10.170;2024-01-06T10:18:30;7.75;;;3.90;;
50605;SDS011;36557;53.572;10.170;2024-01-06T10:20:56;7.10;;;3.77;;
50605;SDS011;36557;53.572;10.170;2024-01-06T10:23:23;7.75;;;3.80;;
50605;SDS011;36557;53.572;10.170;2024-01-06T10:25:55;7.03;;;3.73;;
50605;SDS011;36557;53.572;10.170;2024-01-06T10:28:21;8.20;;;4.03;;
50605;SDS011;36557;53.572;10.170;2024-01-06T10:30:53;5.75;;;3.78;;
50605;SDS011;36557;53.572;10.170;2024-01-06T10:33:20;6.53;;;3.50;;
50605;SDS011;36557;53.572;10.170;2024-01-06T10:35:47;6.70;;;3.88;;
50605;SDS011;36557;53.572;10.170;2024-01-06T10:38:13;7.05;;;3.75;;
50605;SDS011;36557;53.572;10.170;2024-01-06T10:40:55;9.55;;;4.28;;
50605;SDS011;36557;53.572;10.170;2024-01-06T10:43:32;8.20;;;4.50;;
50605;SDS011;36557;53.572;10.170;2024-01-06T10:46:05;7.85;;;3.95;;
50605;SDS011;36557;53.572;10.170;2024-01-06T10:48:35;5.65;;;3.63;;
50605;SDS011;36557;53.572;10.170;2024-01-06T10:51:10;6.43;;;4.00;;
50605;SDS011;36557;53.572;10.170;2024-01-06T10:53:39;6.00;;;3.38;;
50605;SDS011;36557;53.572;10.170;2024-01-06T10:56:06;6.53;;;2.93;;
50605;SDS011;36557;53.572;10.170;2024-01-06T10:58:34;7.50;;;3.80;;
50605;SDS011;36557;53.572;10.170;2024-01-06T11:01:08;6.43;;;3.65;;
50605;SDS011;36557;53.572;10.170;2024-01-06T11:03:35;5.25;;;3.15;;
50605;SDS011;36557;53.572;10.170;2024-01-06T11:06:03;8.20;;;3.50;;
50605;SDS011;36557;53.572;10.170;2024-01-06T11:08:36;6.43;;;3.40;;
50605;SDS011;36557;53.572;10.170;2024-01-06T11:11:14;6.65;;;3.20;;
50605;SDS011;36557;53.572;10.170;2024-01-06T11:13:44;7.10;;;3.15;;
50605;SDS011;36557;53.572;10.170;2024-01-06T11:16:12;5.50;;;3.10;;
50605;SDS011;36557;53.572;10.170;2024-01-06T11:19:01;7.22;;;3.50;;
50605;SDS011;36557;53.572;10.170;2024-01-06T11:21:27;6.05;;;3.20;;
50605;SDS011;36557;53.572;10.170;2024-01-06T11:26:52;6.60;;;3.35;;
50605;SDS011;36557;53.572;10.170;2024-01-06T11:29:21;5.97;;;3.00;;
50605;SDS011;36557;53.572;10.170;2024-01-06T11:34:47;5.47;;;3.05;;
50605;SDS011;36557;53.572;10.170;2024-01-06T11:37:14;5.45;;;2.83;;
50605;SDS011;36557;53.572;10.170;2024-01-06T11:39:42;8.13;;;3.00;;
50605;SDS011;36557;53.572;10.170;2024-01-06T11:42:10;5.78;;;2.80;;
50605;SDS011;36557;53.572;10.170;2024-01-06T11:44:39;4.72;;;2.50;;
50605;SDS011;36557;53.572;10.170;2024-01-06T11:47:08;5.90;;;2.85;;
50605;SDS011;36557;53.572;10.170;2024-01-06T11:49:36;5.00;;;2.88;;
50605;SDS011;36557;53.572;10.170;2024-01-06T11:52:02;6.07;;;2.97;;
50605;SDS011;36557;53.572;10.170;2024-01-06T11:54:28;7.88;;;3.10;;
50605;SDS011;36557;53.572;10.170;2024-01-06T11:56:55;5.70;;;2.78;;
50605;SDS011;36557;53.572;10.170;2024-01-06T11:59:22;6.18;;;2.80;;
50605;SDS011;36557;53.572;10.170;2024-01-06T12:01:48;5.15;;;2.88;;
50605;SDS011;36557;53.572;10.170;2024-01-06T12:04:14;6.72;;;3.00;;
50605;SDS011;36557;53.572;10.170;2024-01-06T12:06:43;6.45;;;3.15;;
50605;SDS011;36557;53.572;10.170;2024-01-06T12:09:12;3.95;;;2.25;;
50605;SDS011;36557;53.572;10.170;2024-01-06T12:11:41;5.38;;;2.50;;
50605;SDS011;36557;53.572;10.170;2024-01-06T12:14:10;5.33;;;2.53;;
50605;SDS011;36557;53.572;10.170;2024-01-06T12:16:36;3.72;;;2.17;;
50605;SDS011;36557;53.572;10.170;2024-01-06T12:19:01;3.58;;;2.33;;
50605;SDS011;36557;53.572;10.170;2024-01-06T12:21:28;4.57;;;2.22;;
50605;SDS011;36557;53.572;10.170;2024-01-06T12:24:12;5.53;;;2.33;;
50605;SDS011;36557;53.572;10.170;2024-01-06T12:26:41;4.60;;;2.47;;
50605;SDS011;36557;53.572;10.170;2024-01-06T12:29:06;3.90;;;2.27;;
50605;SDS011;36557;53.572;10.170;2024-01-06T12:31:32;4.33;;;1.93;;
50605;SDS011;36557;53.572;10.170;2024-01-06T12:33:59;4.53;;;2.30;;
50605;SDS011;36557;53.572;10.170;2024-01-06T12:36:25;4.93;;;2.40;;
50605;SDS011;36557;53.572;10.170;2024-01-06T12:38:50;3.63;;;2.10;;
50605;SDS011;36557;53.572;10.170;2024-01-06T12:41:16;5.90;;;2.80;;
50605;SDS011;36557;53.572;10.170;2024-01-06T12:43:42;4.38;;;2.42;;
50605;SDS011;36557;53.572;10.170;2024-01-06T12:46:07;3.90;;;2.40;;
50605;SDS011;36557;53.572;10.170;2024-01-06T12:48:33;4.73;;;2.10;;
50605;SDS011;36557;53.572;10.170;2024-01-06T12:50:59;4.23;;;2.20;;
50605;SDS011;36557;53.572;10.170;2024-01-06T12:53:24;3.38;;;2.10;;
50605;SDS011;36557;53.572;10.170;2024-01-06T12:55:50;3.90;;;2.30;;
50605;SDS011;36557;53.572;10.170;2024-01-06T12:58:16;3.95;;;1.98;;
50605;SDS011;36557;53.572;10.170;2024-01-06T13:00:41;3.80;;;2.10;;
50605;SDS011;36557;53.572;10.170;2024-01-06T13:03:07;3.70;;;1.60;;
50605;SDS011;36557;53.572;10.170;2024-01-06T13:05:33;4.00;;;1.90;;
50605;SDS011;36557;53.572;10.170;2024-01-06T13:07:59;4.18;;;2.33;;
50605;SDS011;36557;53.572;10.170;2024-01-06T13:10:25;4.90;;;2.20;;
50605;SDS011;36557;53.572;10.170;2024-01-06T13:12:50;2.90;;;1.67;;
50605;SDS011;36557;53.572;10.170;2024-01-06T13:15:16;3.63;;;1.93;;
50605;SDS011;36557;53.572;10.170;2024-01-06T13:17:42;4.17;;;2.00;;
50605;SDS011;36557;53.572;10.170;2024-01-06T13:20:08;3.78;;;1.75;;
50605;SDS011;36557;53.572;10.170;2024-01-06T13:22:34;3.10;;;1.98;;
50605;SDS011;36557;53.572;10.170;2024-01-06T13:24:59;3.53;;;2.00;;
50605;SDS011;36557;53.572;10.170;2024-01-06T13:27:25;4.68;;;2.25;;
50605;SDS011;36557;53.572;10.170;2024-01-06T13:29:54;3.25;;;1.95;;
50605;SDS011;36557;53.572;10.170;2024-01-06T13:32:19;3.25;;;1.83;;
50605;SDS011;36557;53.572;10.170;2024-01-06T13:34:47;5.05;;;2.00;;
50605;SDS011;36557;53.572;10.170;2024-01-06T13:37:12;3.50;;;2.00;;
50605;SDS011;36557;53.572;10.170;2024-01-06T13:39:38;4.00;;;1.83;;
50605;SDS011;36557;53.572;10.170;2024-01-06T13:42:04;4.35;;;2.38;;
50605;SDS011;36557;53.572;10.170;2024-01-06T13:44:30;4.22;;;2.10;;
50605;SDS011;36557;53.572;10.170;2024-01-06T13:46:55;3.45;;;2.00;;
50605;SDS011;36557;53.572;10.170;2024-01-06T13:49:21;3.67;;;2.20;;
50605;SDS011;36557;53.572;10.170;2024-01-06T13:51:48;3.60;;;1.95;;
50605;SDS011;36557;53.572;10.170;2024-01-06T13:54:14;2.87;;;1.80;;
50605;SDS011;36557;53.572;10.170;2024-01-06T13:56:40;3.90;;;2.17;;
50605;SDS011;36557;53.572;10.170;2024-01-06T13:59:06;3.47;;;1.87;;
50605;SDS011;36557;53.572;10.170;2024-01-06T14:01:33;4.88;;;1.95;;
50605;SDS011;36557;53.572;10.170;2024-01-06T14:03:59;3.90;;;1.98;;
50605;SDS011;36557;53.572;10.170;2024-01-06T14:06:25;3.10;;;1.83;;
50605;SDS011;36557;53.572;10.170;2024-01-06T14:08:55;3.40;;;2.10;;
50605;SDS011;36557;53.572;10.170;2024-01-06T14:11:21;3.58;;;1.83;;
50605;SDS011;36557;53.572;10.170;2024-01-06T14:13:46;2.95;;;2.00;;
50605;SDS011;36557;53.572;10.170;2024-01-06T14:16:14;3.97;;;1.90;;
50605;SDS011;36557;53.572;10.170;2024-01-06T14:18:40;3.13;;;1.90;;
50605;SDS011;36557;53.572;10.170;2024-01-06T14:21:08;3.73;;;2.20;;
50605;SDS011;36557;53.572;10.170;2024-01-06T14:23:34;3.35;;;2.10;;
50605;SDS011;36557;53.572;10.170;2024-01-06T14:26:00;3.85;;;2.05;;
50605;SDS011;36557;53.572;10.170;2024-01-06T14:28:25;2.90;;;1.70;;
50605;SDS011;36557;53.572;10.170;2024-01-06T14:30:51;4.43;;;2.27;;
50605;SDS011;36557;53.572;10.170;2024-01-06T14:33:17;3.40;;;2.00;;
50605;SDS011;36557;53.572;10.170;2024-01-06T14:35:44;4.25;;;1.92;;